createdAt,value
2019-02-20T00:00:11.695Z,79.90
2019-02-20T00:02:43.826Z,79.90
2019-02-20T00:05:33.836Z,79.80
2019-02-20T00:08:04.446Z,79.70
2019-02-20T00:10:35.232Z,79.60
2019-02-20T00:13:06.306Z,79.30
2019-02-20T00:15:42.014Z,79.20
2019-02-20T00:18:13.990Z,79.10
2019-02-20T00:20:44.269Z,79.50
2019-02-20T00:23:15.856Z,79.80
2019-02-20T00:25:48.015Z,79.90
2019-02-20T00:28:21.362Z,79.80
2019-02-20T00:30:51.740Z,79.50
2019-02-20T00:33:21.355Z,79.40
2019-02-20T00:35:52.409Z,79.60
2019-02-20T00:38:23.422Z,79.70
2019-02-20T00:40:54.855Z,79.40
2019-02-20T00:43:25.726Z,79.30
2019-02-20T00:45:56.688Z,79.20
2019-02-20T00:48:45.984Z,79.20
2019-02-20T00:51:17.766Z,79.20
2019-02-20T00:53:50.817Z,78.90
2019-02-20T00:56:21.551Z,78.90
2019-02-20T00:58:53.707Z,78.80
2019-02-20T01:01:24.298Z,78.50
2019-02-20T01:03:55.372Z,78.30
2019-02-20T01:06:27.388Z,78.40
2019-02-20T01:08:59.133Z,78.40
2019-02-20T01:11:31.146Z,78.30
2019-02-20T01:14:03.925Z,78.20
2019-02-20T01:16:37.221Z,78.10
2019-02-20T01:19:08.416Z,78.30
2019-02-20T01:21:38.021Z,78.30
2019-02-20T01:24:09.268Z,78.40
2019-02-20T01:26:39.043Z,78.50
2019-02-20T01:29:12.405Z,78.60
2019-02-20T01:31:42.920Z,78.70
2019-02-20T01:34:13.615Z,78.60
2019-02-20T01:36:44.393Z,78.80
2019-02-20T01:39:15.598Z,79.00
2019-02-20T01:41:48.181Z,79.10
2019-02-20T01:44:18.979Z,79.00
2019-02-20T01:46:51.233Z,79.00
2019-02-20T01:49:23.502Z,79.00
2019-02-20T01:51:55.616Z,78.90
2019-02-20T01:54:26.628Z,78.90
2019-02-20T01:56:58.368Z,78.90
2019-02-20T01:59:29.593Z,78.70
2019-02-20T02:01:59.187Z,79.10
2019-02-20T02:04:32.859Z,79.00
2019-02-20T02:07:03.197Z,79.00
2019-02-20T02:09:34.885Z,78.80
2019-02-20T02:12:04.657Z,78.70
2019-02-20T02:14:34.822Z,78.50
2019-02-20T02:17:08.915Z,78.30
2019-02-20T02:19:39.524Z,78.40
2019-02-20T02:22:12.353Z,78.40
2019-02-20T02:24:43.426Z,78.20
2019-02-20T02:27:13.759Z,78.40
2019-02-20T02:29:43.738Z,78.30
2019-02-20T02:32:13.934Z,78.30
2019-02-20T02:34:45.734Z,78.30
2019-02-20T02:37:16.979Z,78.10
2019-02-20T02:39:46.602Z,78.20
2019-02-20T02:42:17.494Z,78.10
2019-02-20T02:44:49.147Z,78.10
2019-02-20T02:47:19.846Z,78.20
2019-02-20T02:49:50.320Z,78.30
2019-02-20T02:52:22.425Z,78.30
2019-02-20T02:54:54.010Z,78.20
2019-02-20T02:57:24.754Z,78.20
2019-02-20T02:59:54.617Z,78.00
2019-02-20T03:02:26.272Z,78.30
2019-02-20T03:04:57.615Z,78.20
2019-02-20T03:07:28.348Z,78.20
2019-02-20T03:10:00.679Z,78.30
2019-02-20T03:12:30.404Z,78.30
2019-02-20T03:15:03.205Z,78.60
2019-02-20T03:17:32.928Z,78.10
2019-02-20T03:20:05.912Z,78.10
2019-02-20T03:22:35.722Z,78.10
2019-02-20T03:25:07.606Z,78.30
2019-02-20T03:27:37.307Z,78.30
2019-02-20T03:30:07.544Z,78.20
2019-02-20T03:32:38.014Z,78.20
2019-02-20T03:35:08.535Z,78.10
2019-02-20T03:37:38.314Z,78.30
2019-02-20T03:40:11.878Z,78.80
2019-02-20T03:42:43.574Z,78.90
2019-02-20T03:45:14.884Z,79.10
2019-02-20T03:47:46.452Z,79.00
2019-02-20T03:50:17.888Z,79.10
2019-02-20T03:52:48.240Z,79.10
2019-02-20T03:55:18.888Z,79.00
2019-02-20T03:57:50.881Z,78.90
2019-02-20T04:00:21.626Z,78.90
2019-02-20T04:02:52.067Z,78.70
2019-02-20T04:05:22.871Z,78.30
2019-02-20T04:07:54.983Z,78.20
2019-02-20T04:10:25.688Z,78.20
2019-02-20T04:12:55.995Z,78.20
2019-02-20T04:15:26.948Z,78.30
2019-02-20T04:17:59.776Z,78.50
2019-02-20T04:20:31.336Z,78.50
2019-02-20T04:23:03.351Z,78.30
2019-02-20T04:25:33.697Z,78.60
2019-02-20T04:28:03.929Z,79.10
2019-02-20T04:30:34.994Z,79.30
2019-02-20T04:33:08.703Z,79.40
2019-02-20T04:35:40.702Z,79.20
2019-02-20T04:38:11.084Z,79.30
2019-02-20T04:40:41.743Z,79.60
2019-02-20T04:43:13.345Z,79.50
2019-02-20T04:45:43.185Z,79.20
2019-02-20T04:48:14.360Z,79.20
2019-02-20T04:50:45.105Z,79.30
2019-02-20T04:53:15.317Z,79.00
2019-02-20T04:55:45.741Z,78.80
2019-02-20T04:58:18.687Z,79.10
2019-02-20T05:00:52.058Z,79.10
2019-02-20T05:03:24.939Z,79.30
2019-02-20T05:05:55.970Z,79.30
2019-02-20T05:08:28.014Z,79.40
2019-02-20T05:11:00.174Z,79.60
2019-02-20T05:13:30.571Z,79.80
2019-02-20T05:16:02.645Z,80.10
2019-02-20T05:18:36.183Z,80.10
2019-02-20T05:21:09.626Z,80.30
2019-02-20T05:23:42.841Z,80.20
2019-02-20T05:26:13.943Z,80.30
2019-02-20T05:28:44.261Z,79.90
2019-02-20T05:31:17.501Z,79.80
2019-02-20T05:33:49.351Z,79.90
2019-02-20T05:38:53.338Z,79.80
2019-02-20T05:41:27.487Z,80.00
2019-02-20T05:43:59.568Z,80.30
2019-02-20T05:46:30.647Z,80.40
2019-02-20T05:49:01.680Z,80.60
2019-02-20T05:51:30.988Z,80.40
2019-02-20T05:54:04.161Z,80.20
2019-02-20T05:56:35.506Z,80.30
2019-02-20T05:59:05.886Z,80.00
2019-02-20T06:01:39.628Z,80.20
2019-02-20T06:04:10.170Z,80.10
2019-02-20T06:06:41.505Z,80.20
2019-02-20T06:09:13.771Z,79.90
2019-02-20T06:11:45.571Z,79.70
2019-02-20T06:14:15.431Z,79.80
2019-02-20T06:16:49.659Z,79.60
2019-02-20T06:19:19.922Z,79.20
2019-02-20T06:21:51.126Z,79.20
2019-02-20T06:24:22.518Z,78.90
2019-02-20T06:26:53.878Z,78.70
2019-02-20T06:29:27.291Z,78.70
2019-02-20T06:31:57.620Z,78.20
2019-02-20T06:34:29.656Z,78.20
2019-02-20T06:37:00.219Z,78.60
2019-02-20T06:39:32.915Z,78.80
2019-02-20T06:42:02.904Z,78.10
2019-02-20T06:44:34.419Z,77.80
2019-02-20T06:47:05.290Z,77.60
2019-02-20T06:49:36.140Z,77.80
2019-02-20T06:52:08.618Z,77.30
2019-02-20T06:54:39.039Z,77.60
2019-02-20T06:57:12.243Z,77.40
2019-02-20T06:59:43.672Z,77.40
2019-02-20T07:02:13.495Z,77.20
2019-02-20T07:04:46.362Z,77.20
2019-02-20T07:07:20.082Z,77.20
2019-02-20T07:10:01.861Z,77.50
2019-02-20T07:12:40.567Z,77.00
2019-02-20T07:15:26.328Z,77.30
2019-02-20T07:18:32.439Z,77.30
2019-02-20T07:21:33.571Z,77.60
2019-02-20T07:24:09.098Z,77.50
2019-02-20T07:27:01.046Z,77.70
2019-02-20T07:29:48.808Z,77.50
2019-02-20T07:32:19.109Z,78.00
2019-02-20T07:34:52.359Z,77.60
2019-02-20T07:37:22.097Z,77.70
2019-02-20T07:39:51.746Z,77.10
2019-02-20T07:42:23.045Z,77.10
2019-02-20T07:44:53.234Z,77.00
2019-02-20T07:47:25.236Z,76.80
2019-02-20T07:49:55.714Z,77.10
2019-02-20T07:52:27.627Z,76.90
2019-02-20T07:54:59.418Z,76.80
2019-02-20T07:57:29.120Z,77.00
2019-02-20T08:00:00.033Z,76.80
2019-02-20T08:02:34.803Z,76.80
2019-02-20T08:05:08.407Z,77.10
2019-02-20T08:07:39.323Z,76.50
2019-02-20T08:10:13.831Z,76.90
2019-02-20T08:12:45.280Z,77.20
2019-02-20T08:15:17.381Z,76.70
2019-02-20T08:17:47.675Z,76.00
2019-02-20T08:20:20.594Z,75.90
2019-02-20T08:22:51.221Z,75.90
2019-02-20T08:25:23.275Z,75.50
2019-02-20T08:27:55.718Z,75.70
2019-02-20T08:30:27.037Z,75.60
2019-02-20T08:32:57.429Z,75.40
2019-02-20T08:35:33.250Z,75.00
2019-02-20T08:38:04.081Z,75.00
2019-02-20T08:40:34.544Z,74.40
2019-02-20T08:43:06.171Z,73.90
2019-02-20T08:45:37.132Z,74.30
2019-02-20T08:48:08.457Z,74.80
2019-02-20T08:50:40.081Z,74.10
2019-02-20T08:53:11.427Z,74.00
2019-02-20T08:55:41.658Z,73.60
2019-02-20T08:58:13.569Z,73.60
2019-02-20T09:00:43.905Z,73.80
2019-02-20T09:03:17.746Z,73.30
2019-02-20T09:05:48.392Z,73.10
2019-02-20T09:08:19.910Z,72.10
2019-02-20T09:10:51.481Z,72.90
2019-02-20T09:13:22.192Z,72.60
2019-02-20T09:15:51.977Z,71.70
2019-02-20T09:18:25.243Z,71.80
2019-02-20T09:20:57.046Z,71.00
2019-02-20T09:23:27.894Z,71.60
2019-02-20T09:26:00.320Z,70.90
2019-02-20T09:28:32.050Z,71.00
2019-02-20T09:31:01.830Z,71.40
2019-02-20T09:33:33.356Z,71.00
2019-02-20T09:36:03.790Z,71.40
2019-02-20T09:38:37.859Z,70.10
2019-02-20T09:41:11.408Z,69.70
2019-02-20T09:43:45.151Z,68.80
2019-02-20T09:46:16.608Z,68.30
2019-02-20T09:48:50.741Z,68.80
2019-02-20T09:51:42.375Z,68.30
2019-02-20T09:54:13.737Z,68.10
2019-02-20T09:56:46.830Z,67.70
2019-02-20T09:59:17.572Z,68.70
2019-02-20T10:01:48.127Z,67.50
2019-02-20T10:04:18.858Z,67.30
2019-02-20T10:06:50.251Z,66.80
2019-02-20T10:09:21.248Z,68.50
2019-02-20T10:11:51.943Z,68.30
2019-02-20T10:14:23.852Z,68.30
2019-02-20T10:16:54.069Z,68.70
2019-02-20T10:19:25.035Z,68.80
2019-02-20T10:21:54.899Z,68.60
2019-02-20T10:24:27.152Z,69.10
2019-02-20T10:27:00.576Z,68.10
2019-02-20T10:29:31.859Z,66.20
2019-02-20T10:32:01.524Z,67.20
2019-02-20T10:34:33.259Z,64.20
2019-02-20T10:37:05.957Z,64.50
2019-02-20T10:39:35.790Z,62.20
2019-02-20T10:42:07.847Z,62.90
2019-02-20T10:44:38.382Z,63.40
2019-02-20T10:47:11.906Z,64.50
2019-02-20T10:49:42.267Z,64.80
2019-02-20T10:52:13.815Z,65.20
2019-02-20T10:54:45.769Z,65.50
2019-02-20T10:57:17.297Z,66.50
2019-02-20T10:59:48.857Z,65.80
2019-02-20T11:02:21.096Z,66.60
2019-02-20T11:04:50.794Z,66.80
2019-02-20T11:07:21.070Z,65.70
2019-02-20T11:09:52.147Z,67.30
2019-02-20T11:12:22.865Z,67.20
2019-02-20T11:14:55.796Z,67.60
2019-02-20T11:17:29.329Z,67.40
2019-02-20T11:20:01.557Z,66.50
2019-02-20T11:22:32.811Z,67.50
2019-02-20T11:25:04.242Z,67.00
2019-02-20T11:27:39.478Z,66.70
2019-02-20T11:30:14.518Z,66.50
2019-02-20T11:32:45.360Z,65.10
2019-02-20T11:35:17.055Z,64.80
2019-02-20T11:37:48.463Z,65.40
2019-02-20T11:40:19.700Z,67.20
2019-02-20T11:42:50.019Z,65.40
2019-02-20T11:45:20.395Z,65.80
2019-02-20T11:47:51.229Z,64.90
2019-02-20T11:50:21.827Z,64.80
2019-02-20T11:52:52.180Z,65.40
2019-02-20T11:55:23.660Z,64.30
2019-02-20T11:58:00.788Z,65.10
2019-02-20T12:00:28.359Z,64.30
2019-02-20T12:02:58.752Z,64.90
2019-02-20T12:05:32.285Z,65.10
2019-02-20T12:08:03.223Z,64.60
2019-02-20T12:10:36.619Z,64.10
2019-02-20T12:13:09.618Z,65.00
2019-02-20T12:15:41.816Z,64.80
2019-02-20T12:18:17.322Z,65.80
2019-02-20T12:20:44.051Z,64.40
2019-02-20T12:23:14.399Z,65.30
2019-02-20T12:25:44.307Z,65.40
2019-02-20T12:28:13.967Z,65.60
2019-02-20T12:30:44.511Z,64.80
2019-02-20T12:33:15.940Z,64.90
2019-02-20T12:35:46.188Z,65.00
2019-02-20T12:38:18.059Z,64.20
2019-02-20T12:40:47.584Z,62.20
2019-02-20T12:43:26.412Z,61.60
2019-02-20T12:45:57.287Z,62.20
2019-02-20T12:48:27.443Z,61.40
2019-02-20T12:50:58.459Z,60.30
2019-02-20T12:53:28.939Z,60.90
2019-02-20T12:55:59.250Z,61.20
2019-02-20T12:58:29.581Z,61.20
2019-02-20T13:01:02.107Z,61.10
2019-02-20T13:03:34.054Z,61.10
2019-02-20T13:06:04.868Z,59.90
2019-02-20T13:08:36.437Z,60.10
2019-02-20T13:11:08.691Z,60.50
2019-02-20T13:13:40.708Z,60.00
2019-02-20T13:16:12.136Z,60.50
2019-02-20T13:18:44.860Z,59.90
2019-02-20T13:21:16.102Z,60.10
2019-02-20T13:23:46.359Z,60.50
2019-02-20T13:26:17.073Z,59.40
2019-02-20T13:28:49.436Z,59.80
2019-02-20T13:31:22.417Z,60.00
2019-02-20T13:33:54.024Z,60.10
2019-02-20T13:36:23.759Z,59.10
2019-02-20T13:38:54.954Z,59.10
2019-02-20T13:41:26.459Z,58.70
2019-02-20T13:43:59.488Z,59.10
2019-02-20T13:46:29.222Z,59.60
2019-02-20T13:49:00.730Z,58.80
2019-02-20T13:51:33.302Z,58.20
2019-02-20T13:54:07.776Z,58.80
2019-02-20T13:56:38.969Z,57.40
2019-02-20T13:59:10.934Z,59.10
2019-02-20T14:01:42.335Z,60.00
2019-02-20T14:04:14.312Z,61.50
2019-02-20T14:06:44.558Z,62.30
2019-02-20T14:09:17.302Z,62.90
2019-02-20T14:11:46.674Z,63.60
2019-02-20T14:14:21.702Z,62.80
2019-02-20T14:16:53.945Z,63.20
2019-02-20T14:19:24.710Z,62.50
2019-02-20T14:21:54.376Z,61.80
2019-02-20T14:24:25.475Z,62.60
2019-02-20T14:26:58.296Z,60.10
2019-02-20T14:29:29.784Z,58.80
2019-02-20T14:32:00.260Z,61.20
2019-02-20T14:34:29.990Z,61.60
2019-02-20T14:37:00.134Z,61.10
2019-02-20T14:39:31.493Z,60.60
2019-02-20T14:42:01.037Z,60.00
2019-02-20T14:44:34.060Z,59.30
2019-02-20T14:47:04.450Z,59.40
2019-02-20T14:49:35.342Z,60.10
2019-02-20T14:52:07.342Z,59.10
2019-02-20T14:54:40.380Z,59.60
2019-02-20T14:57:19.362Z,59.50
2019-02-20T14:59:44.003Z,60.20
2019-02-20T15:02:13.690Z,61.00
2019-02-20T15:04:45.055Z,61.70
2019-02-20T15:07:16.590Z,62.70
2019-02-20T15:09:49.942Z,63.60
2019-02-20T15:12:21.080Z,64.00
2019-02-20T15:14:51.509Z,64.30
2019-02-20T15:17:25.144Z,64.70
2019-02-20T15:19:55.471Z,65.70
2019-02-20T15:22:27.659Z,65.00
2019-02-20T15:24:58.291Z,65.80
2019-02-20T15:27:29.031Z,65.50
2019-02-20T15:30:01.171Z,65.20
2019-02-20T15:32:32.498Z,66.30
2019-02-20T15:35:02.851Z,65.90
2019-02-20T15:37:32.225Z,67.00
2019-02-20T15:40:04.382Z,65.40
2019-02-20T15:42:37.349Z,65.80
2019-02-20T15:45:09.826Z,65.90
2019-02-20T15:47:40.436Z,65.70
2019-02-20T15:50:13.697Z,66.20
2019-02-20T15:52:45.468Z,66.50
2019-02-20T15:55:16.812Z,66.70
2019-02-20T15:57:49.068Z,66.50
2019-02-20T16:00:25.170Z,66.30
2019-02-20T16:02:57.122Z,66.70
2019-02-20T16:05:27.830Z,66.00
2019-02-20T16:07:59.192Z,66.50
2019-02-20T16:10:39.167Z,66.10
2019-02-20T16:13:11.204Z,66.30
2019-02-20T16:15:44.900Z,66.70
2019-02-20T16:18:15.167Z,66.70
2019-02-20T16:20:47.595Z,67.30
2019-02-20T16:23:26.531Z,66.70
2019-02-20T16:25:59.689Z,66.70
2019-02-20T16:28:38.602Z,67.10
2019-02-20T16:31:13.574Z,67.10
2019-02-20T16:33:47.244Z,67.60
2019-02-20T16:36:20.116Z,67.70
2019-02-20T16:38:55.253Z,68.00
2019-02-20T16:41:27.688Z,68.00
2019-02-20T16:44:03.301Z,68.40
2019-02-20T16:46:41.211Z,68.10
2019-02-20T16:49:16.763Z,68.30
2019-02-20T16:51:48.819Z,67.80
2019-02-20T16:54:24.995Z,68.60
2019-02-20T16:56:55.836Z,68.30
2019-02-20T16:59:28.083Z,68.80
2019-02-20T17:02:00.186Z,68.80
2019-02-20T17:04:30.953Z,68.40
2019-02-20T17:07:02.536Z,68.60
2019-02-20T17:09:34.066Z,69.30
2019-02-20T17:12:04.912Z,69.20
2019-02-20T17:14:36.576Z,68.90
2019-02-20T17:17:09.657Z,69.10
2019-02-20T17:19:41.715Z,69.40
2019-02-20T17:22:11.872Z,69.20
2019-02-20T17:25:01.279Z,68.90
2019-02-20T17:27:32.514Z,69.10
2019-02-20T17:30:05.226Z,68.90
2019-02-20T17:32:36.469Z,69.40
2019-02-20T17:35:07.859Z,69.60
2019-02-20T17:37:40.047Z,69.50
2019-02-20T17:40:12.038Z,69.60
2019-02-20T17:42:42.744Z,70.10
2019-02-20T17:45:16.906Z,70.00
2019-02-20T17:47:49.211Z,70.20
2019-02-20T17:50:21.677Z,70.60
2019-02-20T17:52:53.721Z,70.60
2019-02-20T17:55:24.735Z,70.40
2019-02-20T17:57:56.897Z,70.60
2019-02-20T18:00:29.425Z,70.60
2019-02-20T18:03:02.197Z,70.90
2019-02-20T18:05:33.666Z,70.90
2019-02-20T18:08:04.512Z,70.60
2019-02-20T18:10:36.630Z,71.10
2019-02-20T18:13:06.356Z,71.40
2019-02-20T18:15:37.972Z,71.50
2019-02-20T18:18:10.605Z,71.80
2019-02-20T18:20:43.425Z,71.90
2019-02-20T18:23:17.987Z,71.20
2019-02-20T18:25:49.786Z,71.40
2019-02-20T18:28:24.529Z,71.20
2019-02-20T18:30:55.331Z,71.30
2019-02-20T18:33:28.823Z,71.20
2019-02-20T18:35:58.589Z,70.80
2019-02-20T18:38:30.583Z,70.30
2019-02-20T18:41:03.324Z,70.50
2019-02-20T18:43:34.528Z,70.40
2019-02-20T18:46:08.705Z,70.40
2019-02-20T18:48:39.553Z,70.40
2019-02-20T18:51:10.905Z,70.40
2019-02-20T18:53:44.955Z,70.40
2019-02-20T18:56:16.411Z,70.40
2019-02-20T18:58:47.893Z,70.50
2019-02-20T19:01:20.057Z,70.80
2019-02-20T19:03:50.307Z,70.80
2019-02-20T19:06:21.776Z,70.50
2019-02-20T19:08:52.614Z,70.60
2019-02-20T19:11:37.238Z,70.70
2019-02-20T19:14:44.509Z,70.70
2019-02-20T19:17:53.284Z,71.00
2019-02-20T19:20:45.367Z,71.00
2019-02-20T19:23:29.117Z,70.90
2019-02-20T19:26:24.175Z,70.70
2019-02-20T19:29:32.276Z,70.70
2019-02-20T19:32:29.998Z,70.90
2019-02-20T19:35:05.555Z,71.10
2019-02-20T19:37:44.491Z,71.50
2019-02-20T19:40:32.125Z,71.70
2019-02-20T19:43:27.694Z,72.10
2019-02-20T19:46:08.237Z,72.30
2019-02-20T19:48:42.093Z,71.80
2019-02-20T19:51:26.824Z,71.70
2019-02-20T19:54:07.724Z,71.70
2019-02-20T19:57:02.167Z,71.30
2019-02-20T19:59:40.239Z,71.50
2019-02-20T20:02:37.193Z,71.60
2019-02-20T20:05:22.904Z,71.90
2019-02-20T20:08:14.853Z,71.90
2019-02-20T20:11:06.691Z,71.80
2019-02-20T20:13:42.030Z,72.20
2019-02-20T20:16:20.084Z,71.90
2019-02-20T20:19:01.560Z,72.20
2019-02-20T20:21:43.112Z,71.90
2019-02-20T20:24:36.618Z,71.50
2019-02-20T20:27:32.563Z,71.50
2019-02-20T20:30:08.868Z,71.80
2019-02-20T20:32:58.843Z,72.10
2019-02-20T20:35:40.255Z,72.10
2019-02-20T20:38:31.438Z,72.10
2019-02-20T20:41:10.761Z,72.60
2019-02-20T20:44:04.737Z,72.70
2019-02-20T20:46:54.751Z,72.70
2019-02-20T20:49:42.720Z,72.70
2019-02-20T20:52:21.366Z,72.30
2019-02-20T20:55:05.407Z,72.20
2019-02-20T20:57:41.104Z,72.00
2019-02-20T21:00:33.998Z,71.80
2019-02-20T21:03:09.322Z,71.80
2019-02-20T21:05:57.851Z,72.00
2019-02-20T21:08:42.894Z,71.80
2019-02-20T21:11:25.563Z,71.70
2019-02-20T21:14:02.511Z,71.80
2019-02-20T21:16:45.154Z,71.70
2019-02-20T21:19:36.896Z,71.90
2019-02-20T21:22:19.895Z,72.00
2019-02-20T21:25:14.416Z,71.80
2019-02-20T21:28:09.463Z,72.00
2019-02-20T21:31:06.069Z,71.90
2019-02-20T21:34:01.868Z,72.00
2019-02-20T21:36:49.263Z,72.20
2019-02-20T21:39:46.380Z,72.40
2019-02-20T21:42:31.865Z,72.60
2019-02-20T21:45:13.358Z,73.00
2019-02-20T21:47:56.197Z,73.00
2019-02-20T21:50:37.442Z,73.20
2019-02-20T21:53:17.366Z,73.10
2019-02-20T21:56:02.884Z,73.10
2019-02-20T21:58:42.739Z,73.20
2019-02-20T22:01:22.167Z,72.80
2019-02-20T22:04:21.947Z,73.20
2019-02-20T22:07:09.657Z,72.80
2019-02-20T22:10:07.877Z,73.00
2019-02-20T22:12:51.205Z,73.00
2019-02-20T22:15:27.969Z,72.70
2019-02-20T22:18:03.526Z,73.30
2019-02-20T22:20:39.551Z,73.40
2019-02-20T22:23:16.951Z,73.40
2019-02-20T22:26:01.475Z,73.60
2019-02-20T22:28:43.061Z,73.30
2019-02-20T22:31:18.323Z,73.20
2019-02-20T22:34:12.501Z,73.60
2019-02-20T22:37:05.941Z,73.50
2019-02-20T22:39:40.573Z,73.50
2019-02-20T22:42:29.465Z,73.40
2019-02-20T22:45:25.699Z,73.50
2019-02-20T22:48:16.655Z,73.30
2019-02-20T22:50:58.728Z,73.10
2019-02-20T22:54:06.290Z,73.20
2019-02-20T22:56:58.469Z,73.10
2019-02-20T23:00:01.897Z,73.00
2019-02-20T23:02:31.428Z,72.70
2019-02-20T23:05:23.982Z,72.60
2019-02-20T23:08:20.836Z,72.50
2019-02-20T23:11:11.403Z,72.20
2019-02-20T23:13:56.448Z,72.40
2019-02-20T23:16:26.693Z,72.60
2019-02-20T23:18:57.426Z,72.70
2019-02-20T23:21:28.942Z,72.70
2019-02-20T23:23:59.369Z,72.70
2019-02-20T23:29:04.258Z,72.80
2019-02-20T23:31:34.862Z,72.80
2019-02-20T23:34:04.479Z,72.70
2019-02-20T23:36:35.410Z,72.90
2019-02-20T23:39:09.108Z,73.00
2019-02-20T23:41:39.848Z,72.90
2019-02-20T23:44:11.517Z,72.90
2019-02-20T23:46:43.405Z,72.80
2019-02-20T23:49:13.748Z,72.70
2019-02-20T23:51:46.466Z,72.60
2019-02-20T23:54:17.244Z,72.40
2019-02-20T23:56:51.267Z,72.30
2019-02-20T23:59:22.369Z,72.40
